createdAt,value
2018-11-22T00:01:25.465Z,23.70
2018-11-22T00:03:52.675Z,24.67
2018-11-22T00:06:20.009Z,25.93
2018-11-22T00:08:47.790Z,24.00
2018-11-22T00:11:15.222Z,25.97
2018-11-22T00:13:42.468Z,25.53
2018-11-22T00:16:09.737Z,27.97
2018-11-22T00:18:37.016Z,27.30
2018-11-22T00:21:04.479Z,29.00
2018-11-22T00:23:31.825Z,27.07
2018-11-22T00:25:59.178Z,27.27
2018-11-22T00:28:26.463Z,28.43
2018-11-22T00:30:53.751Z,28.07
2018-11-22T00:33:21.017Z,27.60
2018-11-22T00:35:48.396Z,30.07
2018-11-22T00:38:15.691Z,29.20
2018-11-22T00:40:42.946Z,29.50
2018-11-22T00:43:10.220Z,30.10
2018-11-22T00:45:37.500Z,30.50
2018-11-22T00:48:04.955Z,29.63
2018-11-22T00:50:32.223Z,27.10
2018-11-22T00:53:00.124Z,29.93
2018-11-22T00:55:27.638Z,29.33
2018-11-22T00:57:55.501Z,29.20
2018-11-22T01:00:26.790Z,29.20
2018-11-22T01:02:54.081Z,28.80
2018-11-22T01:05:22.523Z,29.27
2018-11-22T01:07:49.777Z,28.67
2018-11-22T01:10:18.544Z,29.37
2018-11-22T01:12:46.536Z,27.87
2018-11-22T01:15:14.099Z,27.77
2018-11-22T01:17:41.360Z,28.77
2018-11-22T01:20:11.339Z,28.87
2018-11-22T01:22:38.792Z,29.17
2018-11-22T01:25:06.958Z,28.87
2018-11-22T01:27:34.205Z,29.17
2018-11-22T01:30:01.812Z,28.23
2018-11-22T01:32:29.164Z,28.93
2018-11-22T01:34:58.070Z,27.30
2018-11-22T01:37:25.543Z,28.33
2018-11-22T01:39:52.830Z,29.27
2018-11-22T01:42:20.266Z,30.17
2018-11-22T01:44:47.671Z,29.67
2018-11-22T01:47:14.931Z,28.30
2018-11-22T01:49:42.167Z,29.97
2018-11-22T01:52:09.445Z,29.67
2018-11-22T01:54:36.812Z,30.50
2018-11-22T01:57:04.086Z,29.30
2018-11-22T01:59:31.340Z,28.97
2018-11-22T02:01:58.577Z,27.47
2018-11-22T02:04:25.813Z,29.77
2018-11-22T02:06:53.438Z,27.80
2018-11-22T02:09:20.667Z,28.10
2018-11-22T02:11:47.927Z,29.53
2018-11-22T02:14:15.207Z,30.40
2018-11-22T02:16:42.460Z,29.77
2018-11-22T02:19:09.725Z,29.80
2018-11-22T02:21:36.925Z,30.40
2018-11-22T02:24:04.355Z,30.27
2018-11-22T02:26:31.589Z,30.50
2018-11-22T02:28:58.787Z,30.90
2018-11-22T02:31:26.026Z,28.50
2018-11-22T02:33:53.340Z,29.50
2018-11-22T02:36:20.605Z,28.70
2018-11-22T02:38:47.890Z,30.97
2018-11-22T02:41:15.172Z,29.70
2018-11-22T02:43:42.520Z,31.17
2018-11-22T02:46:09.884Z,29.63
2018-11-22T02:48:37.168Z,29.13
2018-11-22T02:51:04.465Z,29.73
2018-11-22T02:53:31.683Z,30.47
2018-11-22T02:55:58.966Z,30.50
2018-11-22T02:58:26.203Z,31.07
2018-11-22T03:00:54.179Z,29.20
2018-11-22T03:03:21.481Z,28.93
2018-11-22T03:05:48.723Z,30.20
2018-11-22T03:08:16.000Z,30.33
2018-11-22T03:10:43.257Z,27.37
2018-11-22T03:13:12.494Z,28.73
2018-11-22T03:15:39.727Z,30.47
2018-11-22T03:18:07.032Z,29.93
2018-11-22T03:20:34.286Z,28.13
2018-11-22T03:23:01.536Z,29.70
2018-11-22T03:25:28.787Z,29.97
2018-11-22T03:27:56.072Z,28.73
2018-11-22T03:30:24.083Z,28.60
2018-11-22T03:32:53.397Z,27.53
2018-11-22T03:35:22.127Z,30.47
2018-11-22T03:37:49.431Z,28.07
2018-11-22T03:40:18.102Z,28.50
2018-11-22T03:42:45.373Z,28.57
2018-11-22T03:45:13.364Z,30.23
2018-11-22T03:47:40.951Z,28.70
2018-11-22T03:50:09.062Z,29.87
2018-11-22T03:52:36.352Z,27.30
2018-11-22T03:55:05.492Z,27.80
2018-11-22T03:57:32.774Z,28.97
2018-11-22T04:00:00.057Z,28.43
2018-11-22T04:02:27.304Z,28.63
2018-11-22T04:04:54.582Z,26.60
2018-11-22T04:07:21.802Z,26.87
2018-11-22T04:09:49.046Z,27.87
2018-11-22T04:12:16.331Z,26.33
2018-11-22T12:16:49.864Z,17.40
2018-11-22T12:19:17.517Z,17.33
2018-11-22T12:21:45.219Z,17.33
2018-11-22T12:24:13.027Z,17.67
2018-11-22T12:26:40.789Z,16.90
2018-11-22T12:29:08.551Z,17.57
2018-11-22T12:31:37.841Z,17.40
2018-11-22T12:34:11.154Z,17.27
2018-11-22T12:36:44.628Z,17.03
2018-11-22T12:39:13.254Z,16.93
2018-11-22T12:41:41.479Z,18.07
2018-11-22T12:44:09.579Z,18.80
2018-11-22T12:46:37.962Z,18.60
2018-11-22T12:49:06.665Z,17.77
2018-11-22T12:51:34.393Z,17.90
2018-11-22T12:54:02.151Z,18.90
2018-11-22T12:56:30.030Z,17.43
2018-11-22T12:58:57.824Z,19.00
2018-11-22T13:01:25.894Z,18.93
2018-11-22T13:03:53.767Z,17.17
2018-11-22T13:06:21.663Z,18.50
2018-11-22T13:08:49.356Z,19.63
2018-11-22T13:11:17.391Z,18.93
2018-11-22T13:13:46.411Z,18.27
2018-11-22T13:16:14.259Z,19.57
2018-11-22T13:18:42.074Z,17.93
2018-11-22T13:21:10.289Z,19.20
2018-11-22T13:23:38.160Z,18.47
2018-11-22T13:26:06.143Z,20.20
2018-11-22T13:28:33.990Z,19.07
2018-11-22T13:31:01.727Z,18.53
2018-11-22T13:33:29.945Z,19.40
2018-11-22T13:35:57.860Z,18.50
2018-11-22T13:38:25.664Z,19.87
2018-11-22T13:40:53.386Z,23.83
2018-11-22T13:43:21.197Z,20.17
2018-11-22T13:45:49.109Z,28.07
2018-11-22T13:48:16.824Z,18.87
2018-11-22T13:50:44.671Z,22.00
2018-11-22T13:53:12.511Z,18.80
2018-11-22T13:55:42.233Z,19.93
2018-11-22T13:58:09.977Z,18.70
2018-11-22T14:00:37.710Z,19.53
2018-11-22T14:03:06.714Z,18.97
2018-11-22T14:05:34.479Z,19.23
2018-11-22T14:08:02.539Z,19.60
2018-11-22T14:10:30.372Z,18.50
2018-11-22T14:12:58.302Z,18.60
2018-11-22T14:15:27.396Z,19.53
2018-11-22T14:17:56.682Z,18.93
2018-11-22T14:20:26.248Z,20.43
2018-11-22T14:22:54.033Z,19.70
2018-11-22T14:25:21.856Z,19.93
2018-11-22T14:27:50.320Z,19.83
2018-11-22T14:30:19.653Z,21.13
2018-11-22T14:32:48.236Z,20.63
2018-11-22T14:35:16.949Z,20.63
2018-11-22T14:37:45.938Z,19.37
2018-11-22T14:40:18.530Z,19.63
2018-11-22T14:42:47.202Z,18.93
2018-11-22T14:45:15.268Z,19.83
2018-11-22T14:47:44.080Z,18.87
2018-11-22T14:50:15.941Z,18.83
2018-11-22T14:52:46.060Z,19.40
2018-11-22T14:55:13.848Z,20.03
2018-11-22T14:57:41.569Z,17.97
2018-11-22T15:00:11.943Z,19.87
2018-11-22T15:02:41.163Z,20.40
2018-11-22T15:05:09.650Z,19.10
2018-11-22T15:07:37.768Z,19.83
2018-11-22T15:10:06.981Z,18.10
2018-11-22T15:12:34.785Z,18.73
2018-11-22T15:15:02.690Z,17.50
2018-11-22T15:17:31.415Z,20.80
2018-11-22T15:20:01.531Z,19.87
2018-11-22T15:22:29.243Z,19.13
2018-11-22T15:24:56.963Z,18.80
2018-11-22T15:27:24.746Z,18.23
2018-11-22T15:29:52.630Z,18.63
2018-11-22T15:32:20.438Z,18.53
2018-11-22T15:34:48.220Z,18.77
2018-11-22T15:37:16.098Z,18.53
2018-11-22T15:39:43.994Z,20.23
2018-11-22T15:42:11.702Z,19.13
2018-11-22T15:44:39.456Z,19.60
2018-11-22T15:47:07.105Z,19.10
2018-11-22T15:49:34.904Z,19.97
2018-11-22T15:52:02.520Z,19.00
2018-11-22T15:54:30.369Z,19.47
2018-11-22T15:56:58.101Z,21.00
2018-11-22T15:59:25.889Z,21.80
2018-11-22T16:01:55.711Z,18.90
2018-11-22T16:04:23.546Z,18.77
2018-11-22T16:06:51.318Z,19.60
2018-11-22T16:09:19.069Z,18.13
2018-11-22T16:11:46.723Z,18.40
2018-11-22T16:14:14.474Z,19.77
2018-11-22T16:16:42.175Z,19.83
2018-11-22T16:19:09.904Z,19.33
2018-11-22T16:21:37.767Z,20.03
2018-11-22T16:24:05.603Z,18.43
2018-11-22T16:26:33.449Z,18.83
2018-11-22T16:29:01.161Z,19.70
2018-11-22T16:31:28.819Z,19.50
2018-11-22T16:33:56.632Z,19.43
2018-11-22T16:36:24.311Z,18.37
2018-11-22T16:38:52.126Z,21.23
2018-11-22T16:41:19.902Z,19.50
2018-11-22T16:43:48.002Z,21.10
2018-11-22T16:46:15.753Z,20.80
2018-11-22T16:48:43.578Z,20.00
2018-11-22T16:51:11.346Z,21.13
2018-11-22T16:53:39.096Z,20.37
2018-11-22T16:56:07.336Z,20.70
2018-11-22T16:58:35.091Z,21.60
2018-11-22T17:01:02.919Z,19.73
2018-11-22T17:03:30.756Z,22.20
2018-11-22T17:05:58.587Z,22.60
2018-11-22T17:08:26.304Z,21.43
2018-11-22T17:10:54.019Z,22.30
2018-11-22T17:13:21.639Z,22.70
2018-11-22T17:15:49.269Z,21.60
2018-11-22T17:18:16.962Z,22.57
2018-11-22T17:20:44.723Z,20.63
2018-11-22T17:23:12.494Z,22.70
2018-11-22T17:25:40.251Z,23.30
2018-11-22T17:28:08.864Z,22.03
2018-11-22T17:30:40.061Z,22.47
2018-11-22T17:33:07.712Z,23.17
2018-11-22T17:35:36.089Z,23.50
2018-11-22T17:38:05.149Z,22.07
2018-11-22T17:40:35.465Z,23.50
2018-11-22T17:43:03.371Z,24.03
2018-11-22T17:45:32.855Z,22.60
2018-11-22T17:48:00.932Z,24.47
2018-11-22T17:50:30.405Z,23.60
2018-11-22T17:52:58.514Z,21.83
2018-11-22T17:55:27.563Z,23.37
2018-11-22T17:57:55.400Z,22.33
2018-11-22T18:00:27.569Z,23.77
2018-11-22T18:02:56.497Z,23.20
2018-11-22T18:05:27.272Z,23.43
2018-11-22T18:07:53.265Z,22.77
2018-11-22T18:10:22.439Z,25.43
2018-11-22T18:12:51.560Z,22.90
2018-11-22T18:15:20.404Z,25.00
2018-11-22T18:17:48.634Z,23.33
2018-11-22T18:20:20.289Z,23.33
2018-11-22T18:22:49.003Z,25.27
2018-11-22T18:25:18.165Z,25.27
2018-11-22T18:27:46.169Z,24.07
2018-11-22T18:30:16.166Z,25.10
2018-11-22T18:32:45.220Z,24.27
2018-11-22T18:35:13.391Z,24.30
2018-11-22T18:37:41.170Z,25.83
2018-11-22T18:40:16.038Z,26.43
2018-11-22T18:42:44.823Z,26.50
2018-11-22T18:45:13.880Z,26.67
2018-11-22T18:47:43.117Z,27.00
2018-11-22T18:50:15.729Z,28.00
2018-11-22T18:52:42.754Z,26.57
2018-11-22T18:55:11.425Z,26.30
2018-11-22T18:57:39.502Z,27.27
2018-11-22T19:00:19.890Z,29.07
2018-11-22T19:02:48.188Z,27.97
2018-11-22T19:05:17.012Z,28.60
2018-11-22T19:07:46.193Z,30.27
2018-11-22T19:10:19.812Z,27.67
2018-11-22T19:12:49.045Z,28.93
2018-11-22T19:15:18.281Z,30.53
2018-11-22T19:17:46.398Z,29.93
2018-11-22T19:20:16.707Z,27.03
2018-11-22T19:22:45.542Z,28.50
2018-11-22T19:25:13.563Z,28.97
2018-11-22T19:27:42.097Z,28.90
2018-11-22T19:30:12.615Z,27.30
2018-11-22T19:32:40.772Z,28.93
2018-11-22T19:35:10.244Z,28.07
2018-11-22T19:37:38.250Z,27.67
2018-11-22T19:40:13.918Z,28.10
2018-11-22T19:42:42.938Z,27.43
2018-11-22T19:45:12.007Z,28.53
2018-11-22T19:47:40.254Z,28.13
2018-11-22T19:50:10.490Z,26.73
2018-11-22T19:52:38.689Z,28.07
2018-11-22T19:55:08.590Z,27.67
2018-11-22T19:57:36.560Z,27.03
2018-11-22T20:00:05.823Z,27.67
2018-11-22T20:02:33.709Z,25.77
2018-11-22T20:05:01.551Z,27.33
2018-11-22T20:07:29.565Z,27.53
2018-11-22T20:09:57.411Z,26.70
2018-11-22T20:12:25.301Z,27.53
2018-11-22T20:14:53.446Z,26.27
2018-11-22T20:17:21.125Z,26.10
2018-11-22T20:19:49.067Z,25.70
2018-11-22T20:22:17.024Z,26.40
2018-11-22T20:24:44.879Z,26.13
2018-11-22T20:27:12.697Z,26.73
2018-11-22T20:29:40.483Z,26.67
2018-11-22T20:32:08.273Z,26.47
2018-11-22T20:34:36.222Z,26.43
2018-11-22T20:37:06.113Z,25.33
2018-11-22T20:39:33.778Z,25.43
2018-11-22T20:42:01.659Z,26.10
2018-11-22T20:44:29.429Z,24.30
2018-11-22T20:46:57.450Z,30.47
2018-11-22T20:49:25.267Z,27.97
2018-11-22T20:51:53.091Z,28.93
2018-11-22T20:54:20.883Z,29.33
2018-11-22T20:56:48.594Z,34.07
2018-11-22T20:59:16.196Z,30.13
2018-11-22T21:01:44.065Z,33.63
2018-11-22T21:04:11.843Z,33.47
2018-11-22T21:06:39.661Z,34.77
2018-11-22T21:09:08.358Z,31.03
2018-11-22T21:11:36.107Z,26.37
2018-11-22T21:14:04.438Z,25.97
2018-11-22T21:16:32.184Z,26.07
2018-11-22T21:19:01.776Z,24.70
2018-11-22T21:21:29.807Z,24.27
2018-11-22T21:23:57.488Z,24.77
2018-11-22T21:26:25.113Z,24.87
2018-11-22T21:28:53.024Z,25.07
2018-11-22T21:31:20.606Z,25.03
2018-11-22T21:33:48.596Z,25.70
2018-11-22T21:36:16.412Z,24.37
2018-11-22T21:38:44.232Z,25.73
2018-11-22T21:41:12.054Z,24.70
2018-11-22T21:43:39.935Z,22.83
2018-11-22T21:46:07.708Z,23.70
2018-11-22T21:48:35.368Z,24.00
2018-11-22T21:51:03.125Z,23.63
2018-11-22T21:53:30.897Z,24.93
2018-11-22T21:55:58.641Z,22.83
2018-11-22T21:58:26.375Z,25.00
2018-11-22T22:00:54.352Z,23.93
2018-11-22T22:03:22.257Z,25.13
2018-11-22T22:05:49.892Z,24.77
2018-11-22T22:08:17.862Z,23.70
2018-11-22T22:10:45.866Z,23.77
2018-11-22T22:13:13.907Z,24.17
2018-11-22T22:15:41.645Z,24.37
2018-11-22T22:18:09.456Z,23.77
2018-11-22T22:20:37.620Z,23.40
2018-11-22T22:23:05.493Z,23.37
2018-11-22T22:25:33.251Z,25.00
2018-11-22T22:28:01.349Z,25.27
2018-11-22T22:30:30.535Z,24.40
2018-11-22T22:32:59.732Z,23.97
2018-11-22T22:35:27.589Z,23.37
2018-11-22T22:37:55.385Z,22.13
2018-11-22T22:40:24.422Z,24.67
2018-11-22T22:42:55.254Z,23.37
2018-11-22T22:45:24.150Z,24.60
2018-11-22T22:47:52.239Z,23.77
2018-11-22T22:50:22.139Z,25.33
2018-11-22T22:52:51.526Z,24.13
2018-11-22T22:55:19.305Z,26.00
2018-11-22T22:57:47.061Z,24.67
2018-11-22T23:00:25.305Z,25.00
2018-11-22T23:02:54.541Z,24.77
2018-11-22T23:05:23.164Z,23.93
2018-11-22T23:07:51.251Z,24.57
2018-11-22T23:10:19.618Z,24.50
2018-11-22T23:12:47.475Z,23.03
2018-11-22T23:15:16.248Z,23.47
2018-11-22T23:17:44.208Z,24.67
2018-11-22T23:20:13.696Z,25.77
2018-11-22T23:22:41.784Z,24.37
2018-11-22T23:25:10.428Z,25.00
2018-11-22T23:27:38.790Z,26.20
2018-11-22T23:30:14.134Z,25.60
2018-11-22T23:32:42.746Z,25.00
2018-11-22T23:35:10.579Z,25.20
2018-11-22T23:37:40.005Z,25.50
2018-11-22T23:40:08.727Z,25.53
2018-11-22T23:42:36.592Z,25.03
2018-11-22T23:45:05.485Z,24.43
2018-11-22T23:47:33.175Z,24.40
2018-11-22T23:50:00.948Z,25.00
2018-11-22T23:52:28.572Z,25.20
2018-11-22T23:54:56.302Z,24.17
2018-11-22T23:57:24.074Z,26.27
2018-11-22T23:59:51.866Z,24.53
